Time;durP1;ratioP1;P1;durP2;ratioP2;P2;SDS_P1;SDS_P2;PMS_P1;PMS_P2;Temp;Humidity;BMP_temperature;BMP_pressure;BME280_temperature;BME280_humidity;BME280_pressure;Samples;Min_cycle;Max_cycle;Signal;HPM_P1;HPM_P2
2023/04/23 00:00:18;;;;;;;32.20;17.30;;;;;;;7.69;100.00;100736.92;106982;1253;73764;-85
2023/04/23 00:02:49;;;;;;;26.60;18.10;;;;;;;7.70;100.00;100740.68;107429;1251;62769;-86
2023/04/23 00:05:19;;;;;;;29.50;18.30;;;;;;;7.71;100.00;100744.30;107279;1255;60435;-85
2023/04/23 00:07:47;;;;;;;26.30;17.30;;;;;;;7.70;100.00;100746.11;106627;1254;74870;-86
2023/04/23 00:10:16;;;;;;;31.40;17.50;;;;;;;7.68;100.00;100754.17;106339;1256;64505;-87
2023/04/23 00:12:44;;;;;;;28.80;16.70;;;;;;;7.65;100.00;100753.98;106076;1256;72347;-87
2023/04/23 00:15:13;;;;;;;27.60;16.50;;;;;;;7.61;100.00;100760.75;106249;1251;63167;-86
2023/04/23 00:17:42;;;;;;;29.00;16.40;;;;;;;7.57;100.00;100764.44;106229;1253;60812;-87
2023/04/23 00:20:10;;;;;;;24.30;16.80;;;;;;;7.52;100.00;100762.77;106206;1251;74566;-86
2023/04/23 00:22:40;;;;;;;26.80;16.00;;;;;;;7.45;100.00;100765.47;106175;1255;65348;-87
2023/04/23 00:25:09;;;;;;;30.70;16.60;;;;;;;7.41;100.00;100770.53;106255;1253;72626;-86
2023/04/23 00:27:37;;;;;;;26.80;15.60;;;;;;;7.41;100.00;100772.79;106716;1255;62926;-87
2023/04/23 00:30:07;;;;;;;29.10;15.60;;;;;;;7.46;100.00;100774.81;106347;1253;61753;-86
2023/04/23 00:32:37;;;;;;;27.50;16.90;;;;;;;7.51;100.00;100778.80;106211;1251;74780;-88
2023/04/23 00:35:05;;;;;;;27.50;16.20;;;;;;;7.58;100.00;100776.36;106359;1256;63533;-87
2023/04/23 00:37:34;;;;;;;25.10;16.30;;;;;;;7.67;100.00;100775.64;106163;1253;73870;-87
2023/04/23 00:40:03;;;;;;;31.50;17.50;;;;;;;7.72;100.00;100779.61;106593;1253;61341;-87
2023/04/23 00:42:32;;;;;;;30.00;18.30;;;;;;;7.75;100.00;100779.64;106246;1251;61094;-86
2023/04/23 00:45:01;;;;;;;29.60;18.40;;;;;;;7.77;100.00;100781.44;106349;1255;74820;-88
2023/04/23 00:47:30;;;;;;;30.50;17.00;;;;;;;7.78;100.00;100780.36;106410;1251;65368;-87
2023/04/23 00:50:00;;;;;;;30.70;16.60;;;;;;;7.77;100.00;100776.92;106194;1251;73592;-87
2023/04/23 00:52:28;;;;;;;27.20;14.80;;;;;;;7.75;100.00;100778.08;106225;1253;63031;-86
2023/04/23 00:54:57;;;;;;;25.00;16.40;;;;;;;7.73;100.00;100780.23;106364;1253;60512;-87
2023/04/23 00:57:26;;;;;;;32.40;18.20;;;;;;;7.71;100.00;100779.13;106278;1251;74909;-87
2023/04/23 00:59:57;;;;;;;38.90;18.70;;;;;;;7.68;100.00;100780.45;106366;1255;64335;-86
2023/04/23 01:02:26;;;;;;;19.50;12.50;;;;;;;7.66;100.00;100778.48;106308;1251;73521;-87
2023/04/23 01:04:55;;;;;;;38.60;20.80;;;;;;;7.63;100.00;100775.81;106342;1251;62902;-86
2023/04/23 01:07:25;;;;;;;41.60;22.10;;;;;;;7.59;100.00;100777.21;107228;1251;61341;-84
2023/04/23 01:09:53;;;;;;;46.20;22.70;;;;;;;7.55;100.00;100779.29;106904;1251;74806;-87
2023/04/23 01:12:21;;;;;;;48.40;22.50;;;;;;;7.54;100.00;100780.77;106486;1255;64860;-86
2023/04/23 01:14:50;;;;;;;36.50;20.30;;;;;;;7.53;100.00;100785.48;106185;1253;72253;-88
2023/04/23 01:17:18;;;;;;;35.80;19.50;;;;;;;7.52;100.00;100783.95;106253;1251;60444;-87
2023/04/23 01:19:47;;;;;;;42.80;21.00;;;;;;;7.49;100.00;100780.08;107172;1251;60458;-86
2023/04/23 01:22:15;;;;;;;52.60;26.00;;;;;;;7.44;100.00;100775.76;107939;1251;73620;-87
2023/04/23 01:24:44;;;;;;;63.70;31.50;;;;;;;7.39;100.00;100779.14;108547;1251;64227;-86
2023/04/23 01:27:12;;;;;;;69.10;33.70;;;;;;;7.34;100.00;100776.60;108411;1251;73672;-85
2023/04/23 01:29:40;;;;;;;62.40;33.40;;;;;;;7.27;100.00;100779.86;106375;1251;61969;-86
2023/04/23 01:32:08;;;;;;;78.30;38.60;;;;;;;7.21;100.00;100779.23;106573;1255;60589;-86
2023/04/23 01:34:38;;;;;;;81.30;39.40;;;;;;;7.18;100.00;100783.02;106704;1253;72526;-86
2023/04/23 01:37:07;;;;;;;75.60;37.10;;;;;;;7.12;100.00;100782.92;106952;1255;64872;-86
2023/04/23 01:39:36;;;;;;;74.90;38.00;;;;;;;7.07;100.00;100780.86;106713;1253;73668;-87
2023/04/23 01:42:06;;;;;;;74.70;35.80;;;;;;;7.05;100.00;100780.60;107866;1255;63476;-84
2023/04/23 01:44:35;;;;;;;63.20;36.90;;;;;;;7.02;100.00;100780.00;107258;1252;60437;-85
2023/04/23 01:47:03;;;;;;;84.00;40.00;;;;;;;7.01;100.00;100782.67;107033;1253;74251;-85
2023/04/23 01:49:34;;;;;;;83.00;38.80;;;;;;;7.04;100.00;100777.88;107170;1251;64014;-86
2023/04/23 01:52:03;;;;;;;64.30;33.00;;;;;;;7.02;100.00;100781.77;106624;1255;72726;-85
2023/04/23 01:54:31;;;;;;;66.10;32.20;;;;;;;7.00;100.00;100786.03;106321;1251;61893;-86
2023/04/23 01:57:00;;;;;;;82.90;35.10;;;;;;;6.98;100.00;100784.92;106381;1253;61029;-86
2023/04/23 01:59:28;;;;;;;76.30;37.80;;;;;;;6.93;100.00;100781.64;106171;1253;73468;-87
2023/04/23 02:01:57;;;;;;;81.00;40.50;;;;;;;6.89;100.00;100787.23;106203;1256;63866;-86
2023/04/23 02:04:25;;;;;;;85.30;41.70;;;;;;;6.84;100.00;100786.86;106121;1253;72985;-86
2023/04/23 02:06:54;;;;;;;83.30;38.60;;;;;;;6.82;100.00;100786.98;106149;1253;62928;-88
2023/04/23 02:09:23;;;;;;;71.40;34.20;;;;;;;6.78;100.00;100785.89;106951;1253;61187;-85
2023/04/23 02:11:51;;;;;;;68.10;31.70;;;;;;;6.76;100.00;100787.73;106918;1255;73444;-85
2023/04/23 02:14:19;;;;;;;61.00;33.00;;;;;;;6.74;100.00;100787.64;106884;1255;63933;-88
2023/04/23 02:16:48;;;;;;;55.60;29.00;;;;;;;6.71;100.00;100789.51;106639;1253;73674;-85
2023/04/23 02:19:17;;;;;;;80.70;33.20;;;;;;;6.69;100.00;100792.72;106441;1255;60550;-86
2023/04/23 02:21:45;;;;;;;61.30;28.90;;;;;;;6.66;100.00;100790.75;106275;1255;60368;-88
2023/04/23 02:24:14;;;;;;;41.20;22.40;;;;;;;6.61;100.00;100790.77;106278;1255;74816;-88
2023/04/23 02:26:42;;;;;;;30.50;16.00;;;;;;;6.54;100.00;100790.75;106333;1255;63927;-87
2023/04/23 02:29:11;;;;;;;37.90;20.50;;;;;;;6.47;100.00;100789.30;106128;1255;72829;-85
2023/04/23 02:31:39;;;;;;;40.50;21.30;;;;;;;6.38;100.00;100790.31;106121;1253;62998;-88
2023/04/23 02:34:10;;;;;;;38.10;20.70;;;;;;;6.33;100.00;100787.05;106273;1255;60355;-86
2023/04/23 02:36:39;;;;;;;52.20;25.80;;;;;;;6.30;100.00;100790.97;106134;1256;74840;-88
2023/04/23 02:39:07;;;;;;;55.20;27.10;;;;;;;6.29;100.00;100788.77;106423;1252;65426;-85
2023/04/23 02:41:36;;;;;;;67.00;32.80;;;;;;;6.28;100.00;100789.13;106342;1253;73663;-85
2023/04/23 02:44:05;;;;;;;63.00;27.90;;;;;;;6.29;100.00;100796.59;106333;1251;61690;-87
2023/04/23 02:46:36;;;;;;;58.60;25.50;;;;;;;6.30;100.00;100796.73;106444;1253;61154;-86
2023/04/23 02:49:05;;;;;;;49.90;23.00;;;;;;;6.31;100.00;100799.27;106400;1254;74991;-86
2023/04/23 02:51:34;;;;;;;46.00;24.20;;;;;;;6.31;100.00;100800.65;106449;1253;64764;-87
2023/04/23 02:54:02;;;;;;;49.00;24.40;;;;;;;6.30;100.00;100801.92;106324;1253;73585;-87
2023/04/23 02:56:31;;;;;;;39.90;20.50;;;;;;;6.28;100.00;100804.27;106279;1251;63046;-88
2023/04/23 02:59:00;;;;;;;33.40;17.70;;;;;;;6.26;100.00;100805.02;106451;1251;60028;-87
2023/04/23 03:01:29;;;;;;;41.30;16.80;;;;;;;6.24;100.00;100802.66;106283;1251;73851;-89
2023/04/23 03:03:57;;;;;;;34.70;19.50;;;;;;;6.22;100.00;100805.88;106873;1253;63590;-85
2023/04/23 03:06:26;;;;;;;33.10;15.10;;;;;;;6.21;100.00;100811.84;107078;1254;72639;-85
2023/04/23 03:08:54;;;;;;;23.50;13.80;;;;;;;6.18;100.00;100811.41;107562;1253;61968;-87
2023/04/23 03:11:23;;;;;;;23.60;12.80;;;;;;;6.16;100.00;100814.42;108419;1253;60455;-85
2023/04/23 03:13:51;;;;;;;21.30;10.40;;;;;;;6.17;100.00;100815.29;106581;1255;74798;-87
2023/04/23 03:16:20;;;;;;;24.30;12.10;;;;;;;6.20;100.00;100818.98;107946;1251;63712;-86
2023/04/23 03:18:48;;;;;;;16.20;10.50;;;;;;;6.26;100.00;100819.61;107407;1251;72406;-85
2023/04/23 03:21:17;;;;;;;20.00;10.50;;;;;;;6.37;100.00;100821.29;106527;1253;61999;-86
2023/04/23 03:23:45;;;;;;;15.00;9.90;;;;;;;6.46;100.00;100821.95;106196;1252;60441;-88
2023/04/23 03:26:13;;;;;;;15.60;10.50;;;;;;;6.52;100.00;100824.69;106025;1255;74848;-87
2023/04/23 03:28:42;;;;;;;16.80;11.10;;;;;;;6.60;100.00;100830.27;106052;1255;63775;-86
2023/04/23 03:31:10;;;;;;;22.20;12.90;;;;;;;6.74;100.00;100826.59;106254;1255;72730;-86
2023/04/23 03:33:39;;;;;;;19.30;12.10;;;;;;;6.87;100.00;100826.23;105992;1253;61198;-87
2023/04/23 03:36:07;;;;;;;29.60;13.70;;;;;;;6.98;100.00;100828.19;106033;1251;61338;-87
2023/04/23 03:38:35;;;;;;;21.20;14.20;;;;;;;7.11;100.00;100825.91;106203;1253;75042;-84
2023/04/23 03:41:04;;;;;;;31.50;13.90;;;;;;;7.27;100.00;100828.36;105775;1258;64831;-87
2023/04/23 03:43:33;;;;;;;23.30;13.90;;;;;;;7.46;100.00;100831.20;106047;1255;73557;-87
2023/04/23 03:46:16;;;;;;;18.50;11.40;;;;;;;7.68;100.00;100839.63;106145;1251;61786;-86
2023/04/23 03:48:44;;;;;;;22.90;12.40;;;;;;;7.86;100.00;100842.66;106184;1251;60333;-85
2023/04/23 03:51:17;;;;;;;15.70;11.30;;;;;;;8.02;100.00;100843.49;106217;1255;74553;-88
2023/04/23 03:53:48;;;;;;;19.20;9.70;;;;;;;8.19;100.00;100845.64;106195;1251;63863;-85
2023/04/23 03:56:35;;;;;;;15.80;10.00;;;;;;;8.35;100.00;100852.27;106433;1251;74090;-88
2023/04/23 03:59:12;;;;;;;14.60;8.80;;;;;;;8.47;100.00;100854.31;106335;1251;61897;-85
2023/04/23 04:01:41;;;;;;;19.30;9.00;;;;;;;8.66;100.00;100857.91;105973;1251;60466;-87
2023/04/23 04:04:10;;;;;;;14.20;9.30;;;;;;;8.94;100.00;100858.15;106086;1252;72703;-89
2023/04/23 04:06:39;;;;;;;13.80;8.50;;;;;;;9.24;100.00;100856.83;106172;1253;63832;-86
2023/04/23 04:09:08;;;;;;;16.40;10.00;;;;;;;9.55;100.00;100857.36;106099;1256;72340;-85
2023/04/23 04:11:36;;;;;;;22.10;10.30;;;;;;;9.88;100.00;100861.55;106113;1253;61692;-86
2023/04/23 04:14:04;;;;;;;14.50;9.50;;;;;;;10.22;100.00;100869.16;106356;1251;61310;-87
2023/04/23 04:16:33;;;;;;;11.60;7.30;;;;;;;10.54;100.00;100875.48;106298;1255;73874;-88
2023/04/23 04:19:01;;;;;;;14.00;7.90;;;;;;;10.84;100.00;100874.81;106380;1251;63937;-90
2023/04/23 04:21:31;;;;;;;11.10;6.90;;;;;;;11.14;100.00;100876.63;108354;1253;73613;-85
2023/04/23 04:24:03;;;;;;;9.00;7.00;;;;;;;11.35;100.00;100882.36;107342;1251;61633;-87
2023/04/23 04:26:33;;;;;;;11.60;8.00;;;;;;;11.55;100.00;100885.06;106821;1255;61357;-89
2023/04/23 04:29:01;;;;;;;10.70;6.70;;;;;;;11.69;100.00;100891.40;106574;1251;74809;-86
2023/04/23 04:31:31;;;;;;;11.80;8.20;;;;;;;11.83;100.00;100891.95;106560;1255;64294;-87
2023/04/23 04:33:59;;;;;;;12.00;7.80;;;;;;;11.96;100.00;100896.96;106238;1253;72913;-88
2023/04/23 04:36:28;;;;;;;11.00;8.20;;;;;;;12.08;99.97;100900.79;106300;1253;60428;-86
2023/04/23 04:38:57;;;;;;;15.10;8.60;;;;;;;12.27;99.49;100903.96;106131;1253;61302;-86
2023/04/23 04:41:26;;;;;;;16.30;9.20;;;;;;;12.51;98.43;100903.38;106064;1253;74780;-88
2023/04/23 04:43:54;;;;;;;15.00;9.30;;;;;;;12.77;97.40;100909.73;106306;1256;65188;-86
2023/04/23 04:46:27;;;;;;;11.80;8.50;;;;;;;12.98;96.30;100914.73;106258;1253;72624;-87
2023/04/23 04:48:56;;;;;;;12.70;8.10;;;;;;;13.11;95.50;100918.41;106292;1251;61415;-86
2023/04/23 04:51:25;;;;;;;13.80;8.90;;;;;;;13.19;94.96;100921.77;106209;1256;60384;-92
2023/04/23 04:53:54;;;;;;;11.20;7.00;;;;;;;13.26;94.14;100926.73;106226;1253;74820;-88
2023/04/23 04:56:24;;;;;;;10.20;6.50;;;;;;;13.34;92.98;100930.10;106175;1255;64843;-88
2023/04/23 04:58:53;;;;;;;10.70;6.40;;;;;;;13.48;92.65;100928.80;106205;1255;74153;-91
2023/04/23 05:01:23;;;;;;;10.60;6.40;;;;;;;13.76;91.60;100934.33;106358;1256;61063;-89
2023/04/23 05:03:52;;;;;;;11.00;7.90;;;;;;;14.16;90.39;100936.09;106364;1255;60457;-91
2023/04/23 05:06:21;;;;;;;11.50;8.00;;;;;;;14.74;89.22;100942.04;106159;1256;73854;-88
2023/04/23 05:08:51;;;;;;;9.70;6.20;;;;;;;15.38;85.45;100937.90;106130;1253;63758;-87
2023/04/23 05:11:19;;;;;;;11.80;7.00;;;;;;;16.01;82.82;100939.30;106148;1252;73726;-89
2023/04/23 05:13:48;;;;;;;7.90;6.10;;;;;;;16.58;81.28;100941.52;106266;1253;61333;-89
2023/04/23 05:16:17;;;;;;;9.50;5.40;;;;;;;17.14;78.34;100943.71;106343;1253;61059;-87
2023/04/23 05:18:45;;;;;;;7.10;5.60;;;;;;;17.66;75.24;100938.83;106374;1251;73747;-87
2023/04/23 05:21:14;;;;;;;6.60;5.30;;;;;;;18.11;69.25;100938.70;106510;1255;63666;-85
2023/04/23 05:23:42;;;;;;;7.80;5.70;;;;;;;18.41;63.53;100940.48;107462;1253;72922;-87
2023/04/23 05:26:11;;;;;;;9.00;5.40;;;;;;;18.65;61.83;100942.16;107132;1256;60444;-86
2023/04/23 05:28:42;;;;;;;8.80;6.20;;;;;;;18.94;59.85;100946.32;106701;1251;60576;-86
2023/04/23 05:31:10;;;;;;;8.50;5.20;;;;;;;19.21;59.07;100950.06;106566;1252;74770;-87
2023/04/23 05:33:39;;;;;;;7.10;5.40;;;;;;;19.53;56.31;100950.18;106582;1255;64832;-88
2023/04/23 05:36:17;;;;;;;7.50;6.00;;;;;;;19.64;54.37;100943.54;106267;1253;73415;-90
2023/04/23 05:38:46;;;;;;;7.10;4.90;;;;;;;19.71;54.00;100947.98;106276;1251;60579;-89
2023/04/23 05:41:14;;;;;;;6.50;5.70;;;;;;;19.95;55.03;100952.12;106450;1251;61378;-89
2023/04/23 05:43:44;;;;;;;6.10;4.30;;;;;;;20.28;53.28;100956.91;106526;1255;74814;-88
2023/04/23 05:46:14;;;;;;;6.40;4.80;;;;;;;20.61;52.13;100961.64;107155;1251;64821;-87
2023/04/23 05:48:42;;;;;;;6.20;4.80;;;;;;;20.79;49.37;100962.94;107337;1257;73596;-89
2023/04/23 05:51:11;;;;;;;9.80;5.30;;;;;;;20.74;48.67;100966.23;106169;1253;60789;-88
2023/04/23 05:53:44;;;;;;;8.20;5.20;;;;;;;20.42;48.44;100958.83;107770;1251;61329;-90
2023/04/23 05:56:36;;;;;;;7.00;5.40;;;;;;;20.05;48.87;100963.02;106709;1253;73462;-89
2023/04/23 05:59:05;;;;;;;6.00;5.40;;;;;;;19.83;50.51;100965.30;106548;1257;63572;-87
2023/04/23 06:01:35;;;;;;;7.60;5.10;;;;;;;19.87;51.72;100962.03;106349;1255;73893;-89
2023/04/23 06:04:03;;;;;;;7.70;4.50;;;;;;;19.94;49.98;100963.16;106663;1253;60760;-90
2023/04/23 06:06:32;;;;;;;9.70;5.20;;;;;;;19.88;49.16;100968.00;106990;1253;61305;-89
2023/04/23 06:09:01;;;;;;;6.10;4.40;;;;;;;19.65;49.75;100972.39;106880;1251;73783;-89
2023/04/23 06:11:31;;;;;;;6.10;5.00;;;;;;;19.43;50.05;100977.14;106795;1253;64337;-93
2023/04/23 06:13:59;;;;;;;5.00;4.60;;;;;;;19.01;51.52;100977.91;107468;1253;72587;-89
2023/04/23 06:16:28;;;;;;;7.10;5.00;;;;;;;18.61;53.24;100979.34;107412;1252;60192;-88
2023/04/23 06:18:57;;;;;;;5.90;4.80;;;;;;;18.32;55.11;100978.29;107455;1251;60447;-89
2023/04/23 06:21:26;;;;;;;8.80;5.60;;;;;;;18.16;56.54;100976.63;107170;1253;73964;-89
2023/04/23 06:23:56;;;;;;;8.20;4.80;;;;;;;18.07;56.60;100981.89;107026;1255;64593;-89
2023/04/23 06:26:25;;;;;;;10.10;7.40;;;;;;;17.94;57.96;100985.13;107383;1255;72639;-90
2023/04/23 06:28:55;;;;;;;7.00;5.50;;;;;;;17.84;58.94;100986.30;108374;1254;60479;-90
2023/04/23 06:31:29;;;;;;;7.40;5.80;;;;;;;17.81;58.56;100989.36;109081;1255;60254;-88
2023/04/23 06:33:58;;;;;;;9.50;6.10;;;;;;;17.80;57.96;100988.40;108421;1251;73808;-86
2023/04/23 06:36:31;;;;;;;5.30;4.80;;;;;;;17.72;56.46;100994.50;108982;1253;64063;-88
2023/04/23 06:39:00;;;;;;;6.90;5.10;;;;;;;17.66;56.13;101000.17;109326;1253;72984;-88
2023/04/23 06:41:29;;;;;;;5.90;5.40;;;;;;;17.63;56.14;100996.75;108420;1253;60048;-88
2023/04/23 06:44:08;;;;;;;9.00;5.50;;;;;;;17.59;55.36;101000.80;107809;1254;60375;-88
2023/04/23 06:46:41;;;;;;;10.80;5.60;;;;;;;17.55;54.54;100999.01;107637;1256;73782;-90
2023/04/23 06:49:10;;;;;;;6.20;5.50;;;;;;;17.51;55.60;101003.41;107810;1258;64763;-87
2023/04/23 06:51:38;;;;;;;7.40;5.20;;;;;;;17.48;57.24;101002.58;107569;1256;72579;-89
2023/04/23 06:54:07;;;;;;;9.70;5.60;;;;;;;17.43;58.44;101001.34;107702;1254;60288;-88
2023/04/23 06:56:36;;;;;;;8.60;5.40;;;;;;;17.41;57.28;101002.09;108414;1253;61406;-86
2023/04/23 06:59:08;;;;;;;9.80;5.50;;;;;;;17.47;57.77;101002.81;108549;1253;73514;-88
2023/04/23 07:01:45;;;;;;;6.20;4.30;;;;;;;17.63;58.12;101003.41;107946;1253;62388;-89
2023/04/23 07:04:14;;;;;;;5.80;4.90;;;;;;;17.80;54.49;101002.89;107531;1253;73657;-89
2023/04/23 07:06:43;;;;;;;7.30;5.50;;;;;;;18.00;55.15;101002.66;106928;1258;61287;-88
2023/04/23 07:09:11;;;;;;;10.50;5.90;;;;;;;18.14;55.52;101004.66;106632;1257;60338;-86
2023/04/23 07:11:40;;;;;;;5.80;4.40;;;;;;;18.22;53.48;101008.38;107327;1253;74736;-89
2023/04/23 07:14:09;;;;;;;10.60;5.20;;;;;;;18.27;52.46;101006.17;107375;1254;63853;-88
2023/04/23 07:16:39;;;;;;;7.80;6.60;;;;;;;18.37;51.92;101007.97;107825;1253;73589;-88
2023/04/23 07:19:09;;;;;;;11.30;4.60;;;;;;;18.52;52.53;101009.14;107951;1253;61426;-90
2023/04/23 07:21:42;;;;;;;5.80;5.10;;;;;;;18.68;51.59;101012.34;108184;1255;60264;-88
2023/04/23 07:24:15;;;;;;;7.80;5.30;;;;;;;18.94;51.10;101014.89;107722;1259;74216;-90
2023/04/23 07:26:47;;;;;;;8.60;4.90;;;;;;;19.26;50.41;101020.12;107849;1253;63769;-90
2023/04/23 07:29:16;;;;;;;6.90;6.00;;;;;;;19.64;48.84;101018.87;108154;1253;73610;-90
2023/04/23 07:31:50;;;;;;;;;;;;;;;19.99;47.10;101022.36;108622;1256;60641;-89
2023/04/23 07:34:19;;;;;;;9.40;5.80;;;;;;;20.36;46.01;101020.97;109108;1254;60044;-86
2023/04/23 07:36:47;;;;;;;11.90;7.10;;;;;;;20.77;43.93;101019.75;108302;1253;74801;-87
2023/04/23 07:41:34;;;;;;;8.40;4.40;;;;;;;21.60;41.02;101017.17;104801;1286;600997;-87
2023/04/23 07:44:06;;;;;;;9.20;6.00;;;;;;;21.96;39.80;101016.36;106616;1273;60382;-90
2023/04/23 07:46:35;;;;;;;9.70;6.10;;;;;;;22.29;39.06;101018.73;106467;1264;61365;-87
2023/04/23 07:49:04;;;;;;;8.70;6.00;;;;;;;22.50;37.50;101018.11;106268;1264;73242;-87
2023/04/23 07:51:35;;;;;;;9.30;4.70;;;;;;;22.57;36.33;101016.49;106181;1271;63483;-87
2023/04/23 07:54:03;;;;;;;8.40;5.50;;;;;;;22.52;36.80;101015.27;105698;1262;576723;-89
2023/04/23 07:56:36;;;;;;;6.60;4.80;;;;;;;22.58;36.31;101015.90;105803;1263;61406;-88
2023/04/23 07:59:05;;;;;;;6.70;4.50;;;;;;;22.54;35.57;101015.35;106150;1254;61234;-88
2023/04/23 08:01:34;;;;;;;8.30;5.30;;;;;;;22.56;36.24;101012.48;106430;1255;73729;-88
2023/04/23 08:04:03;;;;;;;8.30;6.00;;;;;;;22.59;36.41;101014.04;106676;1262;64818;-89
2023/04/23 08:06:34;;;;;;;10.10;6.70;;;;;;;22.64;36.51;101014.89;106493;1254;73049;-90
2023/04/23 08:09:06;;;;;;;17.70;8.00;;;;;;;22.78;36.20;101012.83;106417;1254;60125;-86
2023/04/23 08:11:34;;;;;;;15.20;9.90;;;;;;;23.03;36.26;101017.70;106392;1254;59361;-89
2023/04/23 08:14:05;;;;;;;14.50;9.30;;;;;;;23.43;36.65;101016.48;106721;1253;73506;-88
2023/04/23 08:16:34;;;;;;;13.60;8.70;;;;;;;23.90;35.84;101017.94;106110;1259;63875;-88
2023/04/23 08:19:06;;;;;;;13.50;9.20;;;;;;;24.41;33.83;101009.63;106074;1254;72581;-89
2023/04/23 08:21:36;;;;;;;16.50;7.40;;;;;;;24.73;32.30;101010.48;106121;1253;61423;-88
2023/04/23 08:24:06;;;;;;;15.60;9.00;;;;;;;24.99;33.38;101010.61;106431;1259;60303;-88
2023/04/23 08:26:35;;;;;;;13.30;8.70;;;;;;;25.28;33.64;101006.48;106312;1257;74583;-90
2023/04/23 08:29:04;;;;;;;9.80;6.30;;;;;;;25.57;32.69;101003.88;106440;1260;64155;-88
2023/04/23 08:31:33;;;;;;;7.70;4.90;;;;;;;25.80;32.03;101004.21;106292;1259;73354;-88
2023/04/23 08:34:01;;;;;;;8.20;5.40;;;;;;;26.06;31.52;101003.61;106564;1253;61071;-88
2023/04/23 08:36:31;;;;;;;10.10;6.20;;;;;;;26.25;31.05;101003.26;106623;1254;61027;-91
2023/04/23 08:39:00;;;;;;;13.70;5.20;;;;;;;26.36;31.00;100995.73;107214;1253;73967;-87
2023/04/23 08:41:38;;;;;;;8.10;5.20;;;;;;;26.55;31.45;100995.67;106721;1259;64457;-88
2023/04/23 08:44:16;;;;;;;7.40;4.10;;;;;;;26.83;29.81;100994.23;106975;1258;73680;-91
2023/04/23 08:46:44;;;;;;;8.60;4.80;;;;;;;27.08;28.78;100998.32;106228;1254;60270;-89
2023/04/23 08:49:15;;;;;;;11.30;4.60;;;;;;;27.24;28.24;100999.77;106595;1259;60265;-89
2023/04/23 08:51:54;;;;;;;11.20;5.00;;;;;;;27.42;28.12;101001.70;106920;1253;74083;-89
2023/04/23 08:54:26;;;;;;;6.80;5.30;;;;;;;27.41;26.75;100997.09;106113;1254;63818;-88
2023/04/23 08:56:59;;;;;;;8.50;4.10;;;;;;;27.32;27.05;100993.23;106256;1255;73659;-86
2023/04/23 08:59:33;;;;;;;7.60;5.20;;;;;;;27.34;26.98;100995.29;106376;1259;61542;-89
2023/04/23 09:02:08;;;;;;;7.40;5.00;;;;;;;27.16;26.78;100988.35;106429;1258;61361;-87
2023/04/23 09:04:37;;;;;;;;;;;;;;;26.97;26.64;100988.93;106227;1262;73549;-86
2023/04/23 09:07:10;;;;;;;10.00;3.80;;;;;;;26.73;26.80;100986.84;106810;1259;64827;-87
2023/04/23 09:09:39;;;;;;;;;;;;;;;26.43;26.44;100985.63;106890;1255;74047;-86
2023/04/23 09:12:08;;;;;;;9.10;3.40;;;;;;;26.18;26.72;100984.45;106530;1254;60337;-87
2023/04/23 09:14:37;;;;;;;6.60;3.80;;;;;;;26.20;27.35;100983.07;106470;1254;61361;-88
2023/04/23 09:17:06;;;;;;;6.90;4.60;;;;;;;26.50;27.73;100975.52;106527;1254;72956;-89
2023/04/23 09:19:36;;;;;;;5.90;3.20;;;;;;;26.86;27.09;100977.55;106436;1257;64680;-87
2023/04/23 09:22:04;;;;;;;4.10;2.80;;;;;;;27.05;25.87;100974.92;106258;1254;73080;-86
2023/04/23 09:24:33;;;;;;;11.90;2.80;;;;;;;26.86;25.67;100971.80;106113;1254;60082;-89
2023/04/23 09:27:02;;;;;;;8.00;2.50;;;;;;;26.64;25.57;100972.49;106092;1254;61078;-86
2023/04/23 09:29:31;;;;;;;6.80;2.70;;;;;;;26.48;26.19;100968.18;106362;1253;73780;-88
2023/04/23 09:32:06;;;;;;;6.10;2.50;;;;;;;26.56;26.81;100964.90;106329;1258;64837;-87
2023/04/23 09:34:38;;;;;;;6.10;3.40;;;;;;;26.86;27.41;100962.30;106459;1253;74306;-87
2023/04/23 09:37:09;;;;;;;7.50;3.00;;;;;;;27.20;27.69;100959.91;107047;1253;60265;-88
2023/04/23 09:39:39;;;;;;;5.90;2.20;;;;;;;27.44;27.21;100957.58;107281;1259;60413;-88
2023/04/23 09:42:10;;;;;;;8.80;2.60;;;;;;;27.60;25.53;100960.18;106760;1259;73442;-85
2023/04/23 09:44:39;;;;;;;8.80;3.10;;;;;;;27.66;25.41;100962.19;107563;1253;65127;-84
2023/04/23 09:47:13;;;;;;;5.30;2.30;;;;;;;27.65;25.58;100957.58;106742;1259;73667;-86
2023/04/23 09:49:47;;;;;;;9.60;3.20;;;;;;;27.72;26.01;100951.94;106801;1257;60307;-89
2023/04/23 09:52:15;;;;;;;8.20;3.60;;;;;;;27.81;25.95;100948.73;106209;1254;60308;-87
2023/04/23 09:54:45;;;;;;;8.10;3.40;;;;;;;27.91;25.34;100946.62;106271;1254;72834;-88
2023/04/23 09:57:14;;;;;;;7.10;3.10;;;;;;;27.86;25.38;100944.27;106502;1254;63789;-86
2023/04/23 09:59:42;;;;;;;5.70;2.80;;;;;;;27.75;24.61;100952.29;105968;1254;72791;-86
2023/04/23 10:02:17;;;;;;;7.90;3.30;;;;;;;27.64;25.68;100946.90;105999;1254;60348;-89
2023/04/23 10:04:50;;;;;;;4.50;2.70;;;;;;;27.67;25.90;100944.33;108031;1253;60658;-88
2023/04/23 10:07:31;;;;;;;5.00;2.70;;;;;;;27.82;25.35;100945.38;107115;1254;74113;-88
2023/04/23 10:10:03;;;;;;;5.30;2.70;;;;;;;27.87;24.92;100938.31;106407;1254;63342;-87
2023/04/23 10:12:35;;;;;;;3.70;2.10;;;;;;;27.94;24.89;100932.48;106580;1259;72616;-89
2023/04/23 10:15:22;;;;;;;6.10;2.60;;;;;;;28.07;25.57;100927.41;106617;1254;60349;-88
2023/04/23 10:18:00;;;;;;;6.70;2.40;;;;;;;28.24;26.37;100921.73;106192;1259;60257;-87
2023/04/23 10:20:29;;;;;;;5.40;3.50;;;;;;;28.38;24.99;100923.78;106103;1255;72982;-87
2023/04/23 10:22:58;;;;;;;6.60;2.60;;;;;;;28.15;24.92;100921.86;106387;1253;62859;-89
2023/04/23 10:25:26;;;;;;;6.60;2.80;;;;;;;27.78;25.82;100925.53;106288;1260;72606;-85
2023/04/23 10:27:55;;;;;;;5.60;2.80;;;;;;;27.56;26.08;100927.13;106770;1254;60362;-89
2023/04/23 10:30:23;;;;;;;4.50;2.80;;;;;;;27.48;26.97;100926.36;107583;1253;60720;-88
2023/04/23 10:32:52;;;;;;;6.60;2.80;;;;;;;27.61;25.94;100925.25;107294;1259;74334;-87
2023/04/23 10:35:20;;;;;;;4.10;2.50;;;;;;;27.65;26.12;100923.41;107004;1253;64244;-88
2023/04/23 10:37:50;;;;;;;6.10;2.20;;;;;;;27.74;26.07;100917.12;107272;1255;72671;-89
2023/04/23 10:40:20;;;;;;;4.70;2.10;;;;;;;27.73;25.15;100916.37;107967;1258;60053;-89
2023/04/23 10:42:49;;;;;;;5.70;2.00;;;;;;;27.72;24.34;100922.09;109486;1256;60321;-87
2023/04/23 10:45:18;;;;;;;3.20;1.60;;;;;;;27.60;24.26;100918.12;108588;1255;73987;-89
2023/04/23 10:47:56;;;;;;;3.90;1.20;;;;;;;27.60;24.26;100921.60;108116;1253;63865;-86
2023/04/23 10:50:26;;;;;;;2.10;1.70;;;;;;;27.58;23.38;100915.52;107930;1257;73199;-88
2023/04/23 10:52:55;;;;;;;5.70;1.70;;;;;;;27.55;24.33;100914.61;106844;1254;60883;-86
2023/04/23 10:55:26;;;;;;;4.20;1.80;;;;;;;27.46;25.00;100910.02;106569;1254;61448;-89
2023/04/23 10:58:02;;;;;;;5.10;2.50;;;;;;;27.37;25.23;100918.79;107154;1258;73041;-90
2023/04/23 11:00:40;;;;;;;6.10;3.90;;;;;;;27.28;25.51;100917.92;106807;1261;64586;-90
2023/04/23 11:03:34;;;;;;;8.60;5.40;;;;;;;27.39;25.63;100916.96;106834;1253;73118;-90
2023/04/23 11:06:36;;;;;;;7.60;3.20;;;;;;;27.47;25.83;100917.62;107600;1258;60203;-91
2023/04/23 11:09:47;;;;;;;5.80;1.60;;;;;;;27.44;25.88;100917.75;108124;1256;60244;-90
2023/04/23 11:12:19;;;;;;;4.90;1.80;;;;;;;27.35;25.87;100914.73;106761;1266;71739;-88
2023/04/23 11:14:48;;;;;;;3.60;2.40;;;;;;;27.26;25.92;100909.61;106693;1263;65291;-87
2023/04/23 11:17:31;;;;;;;2.80;2.00;;;;;;;27.10;25.81;100903.82;106302;1266;72517;-89
2023/04/23 11:20:03;;;;;;;4.80;2.20;;;;;;;26.91;25.88;100904.56;106575;1262;60497;-89
2023/04/23 11:22:35;;;;;;;3.80;2.10;;;;;;;26.87;25.74;100903.64;106826;1266;60781;-86
2023/04/23 11:25:11;;;;;;;;;;;;;;;26.84;25.60;100909.79;107297;1267;74060;-91
2023/04/23 11:27:42;;;;;;;4.40;1.60;;;;;;;26.67;25.49;100908.91;106994;1262;64955;-89